sensor_id;sensor_type;location;lat;lon;timestamp;P1;durP1;ratioP1;P2;durP2;ratioP2
56631;SDS011;42503;39.928;-75.152;2022-10-20T00:01:33;2.00;;;0.50;;
56631;SDS011;42503;39.928;-75.152;2022-10-20T00:03:37;2.03;;;0.50;;
56631;SDS011;42503;39.928;-75.152;2022-10-20T00:06:21;1.88;;;0.60;;
56631;SDS011;42503;39.928;-75.152;2022-10-20T00:08:25;16.02;;;0.88;;
56631;SDS011;42503;39.928;-75.152;2022-10-20T00:10:26;17.20;;;1.77;;
56631;SDS011;42503;39.928;-75.152;2022-10-20T00:12:27;5.20;;;0.98;;
56631;SDS011;42503;39.928;-75.152;2022-10-20T00:14:29;4.97;;;1.08;;
56631;SDS011;42503;39.928;-75.152;2022-10-20T00:16:31;3.17;;;0.93;;
56631;SDS011;42503;39.928;-75.152;2022-10-20T00:18:34;4.93;;;0.80;;
56631;SDS011;42503;39.928;-75.152;2022-10-20T00:20:38;0.95;;;0.50;;
56631;SDS011;42503;39.928;-75.152;2022-10-20T00:22:39;8.10;;;0.80;;
56631;SDS011;42503;39.928;-75.152;2022-10-20T00:24:41;5.47;;;0.50;;
56631;SDS011;42503;39.928;-75.152;2022-10-20T00:26:42;6.68;;;0.50;;
56631;SDS011;42503;39.928;-75.152;2022-10-20T00:28:44;7.05;;;1.10;;
56631;SDS011;42503;39.928;-75.152;2022-10-20T00:30:45;15.15;;;1.25;;
56631;SDS011;42503;39.928;-75.152;2022-10-20T00:32:46;8.23;;;1.05;;
56631;SDS011;42503;39.928;-75.152;2022-10-20T00:34:48;5.18;;;0.95;;
56631;SDS011;42503;39.928;-75.152;2022-10-20T00:36:49;2.60;;;0.73;;
56631;SDS011;42503;39.928;-75.152;2022-10-20T00:38:51;6.82;;;0.60;;
56631;SDS011;42503;39.928;-75.152;2022-10-20T00:40:58;12.07;;;0.70;;
56631;SDS011;42503;39.928;-75.152;2022-10-20T00:43:03;7.38;;;0.60;;
56631;SDS011;42503;39.928;-75.152;2022-10-20T00:45:08;3.88;;;0.73;;
56631;SDS011;42503;39.928;-75.152;2022-10-20T00:47:31;5.28;;;0.80;;
56631;SDS011;42503;39.928;-75.152;2022-10-20T00:49:37;6.32;;;0.50;;
56631;SDS011;42503;39.928;-75.152;2022-10-20T00:51:44;1.05;;;0.50;;
56631;SDS011;42503;39.928;-75.152;2022-10-20T00:53:46;4.18;;;0.63;;
56631;SDS011;42503;39.928;-75.152;2022-10-20T00:55:51;2.80;;;0.60;;
56631;SDS011;42503;39.928;-75.152;2022-10-20T00:57:55;3.45;;;0.57;;
56631;SDS011;42503;39.928;-75.152;2022-10-20T00:59:58;2.88;;;0.77;;
56631;SDS011;42503;39.928;-75.152;2022-10-20T01:01:59;5.00;;;0.60;;
56631;SDS011;42503;39.928;-75.152;2022-10-20T01:04:02;2.70;;;0.75;;
56631;SDS011;42503;39.928;-75.152;2022-10-20T01:06:06;3.22;;;0.60;;
56631;SDS011;42503;39.928;-75.152;2022-10-20T01:08:10;2.75;;;0.73;;
56631;SDS011;42503;39.928;-75.152;2022-10-20T01:10:12;3.67;;;0.65;;
56631;SDS011;42503;39.928;-75.152;2022-10-20T01:12:24;4.75;;;0.50;;
56631;SDS011;42503;39.928;-75.152;2022-10-20T01:16:45;3.58;;;0.60;;
56631;SDS011;42503;39.928;-75.152;2022-10-20T01:27:52;2.97;;;0.68;;
56631;SDS011;42503;39.928;-75.152;2022-10-20T01:30:03;2.35;;;0.43;;
56631;SDS011;42503;39.928;-75.152;2022-10-20T01:32:14;2.10;;;0.50;;
56631;SDS011;42503;39.928;-75.152;2022-10-20T01:34:29;3.35;;;0.60;;
56631;SDS011;42503;39.928;-75.152;2022-10-20T01:37:13;3.05;;;0.40;;
56631;SDS011;42503;39.928;-75.152;2022-10-20T01:39:28;1.35;;;0.47;;
56631;SDS011;42503;39.928;-75.152;2022-10-20T01:41:45;1.65;;;0.65;;
56631;SDS011;42503;39.928;-75.152;2022-10-20T01:43:53;0.90;;;0.38;;
56631;SDS011;42503;39.928;-75.152;2022-10-20T01:45:55;1.67;;;0.60;;
56631;SDS011;42503;39.928;-75.152;2022-10-20T01:47:59;1.65;;;0.50;;
56631;SDS011;42503;39.928;-75.152;2022-10-20T01:50:05;2.35;;;0.70;;
56631;SDS011;42503;39.928;-75.152;2022-10-20T01:52:09;2.28;;;0.57;;
56631;SDS011;42503;39.928;-75.152;2022-10-20T01:54:24;2.17;;;0.52;;
56631;SDS011;42503;39.928;-75.152;2022-10-20T02:03:51;2.20;;;0.75;;
56631;SDS011;42503;39.928;-75.152;2022-10-20T02:08:17;3.63;;;0.65;;
56631;SDS011;42503;39.928;-75.152;2022-10-20T02:10:28;1.30;;;1.20;;
56631;SDS011;42503;39.928;-75.152;2022-10-20T02:12:40;0.70;;;0.50;;
56631;SDS011;42503;39.928;-75.152;2022-10-20T02:14:45;1.92;;;0.57;;
56631;SDS011;42503;39.928;-75.152;2022-10-20T02:16:51;2.55;;;0.60;;
56631;SDS011;42503;39.928;-75.152;2022-10-20T02:18:57;1.75;;;0.68;;
56631;SDS011;42503;39.928;-75.152;2022-10-20T02:21:01;1.40;;;0.75;;
56631;SDS011;42503;39.928;-75.152;2022-10-20T02:23:04;1.88;;;0.70;;
56631;SDS011;42503;39.928;-75.152;2022-10-20T02:25:09;2.95;;;0.77;;
56631;SDS011;42503;39.928;-75.152;2022-10-20T02:29:29;2.45;;;0.70;;
56631;SDS011;42503;39.928;-75.152;2022-10-20T02:31:39;1.83;;;0.95;;
56631;SDS011;42503;39.928;-75.152;2022-10-20T02:33:42;1.65;;;0.60;;
56631;SDS011;42503;39.928;-75.152;2022-10-20T02:35:48;1.92;;;0.80;;
56631;SDS011;42503;39.928;-75.152;2022-10-20T02:37:55;2.03;;;0.70;;
56631;SDS011;42503;39.928;-75.152;2022-10-20T02:39:56;1.17;;;0.63;;
56631;SDS011;42503;39.928;-75.152;2022-10-20T02:41:58;1.30;;;0.60;;
56631;SDS011;42503;39.928;-75.152;2022-10-20T02:44:02;3.00;;;0.60;;
56631;SDS011;42503;39.928;-75.152;2022-10-20T02:46:06;2.35;;;0.82;;
56631;SDS011;42503;39.928;-75.152;2022-10-20T02:48:08;2.47;;;0.70;;
56631;SDS011;42503;39.928;-75.152;2022-10-20T02:50:09;1.80;;;0.75;;
56631;SDS011;42503;39.928;-75.152;2022-10-20T02:52:13;1.40;;;0.77;;
56631;SDS011;42503;39.928;-75.152;2022-10-20T02:54:15;1.70;;;0.68;;
56631;SDS011;42503;39.928;-75.152;2022-10-20T02:56:16;1.70;;;0.90;;
56631;SDS011;42503;39.928;-75.152;2022-10-20T02:58:18;1.33;;;0.95;;
56631;SDS011;42503;39.928;-75.152;2022-10-20T03:00:19;1.13;;;0.82;;
56631;SDS011;42503;39.928;-75.152;2022-10-20T03:02:21;2.17;;;0.90;;
56631;SDS011;42503;39.928;-75.152;2022-10-20T03:04:22;1.63;;;0.80;;
56631;SDS011;42503;39.928;-75.152;2022-10-20T03:06:23;2.55;;;0.57;;
56631;SDS011;42503;39.928;-75.152;2022-10-20T03:08:25;2.90;;;0.55;;
56631;SDS011;42503;39.928;-75.152;2022-10-20T03:10:26;3.00;;;0.60;;
56631;SDS011;42503;39.928;-75.152;2022-10-20T03:12:28;2.40;;;0.95;;
56631;SDS011;42503;39.928;-75.152;2022-10-20T03:14:29;3.38;;;0.70;;
56631;SDS011;42503;39.928;-75.152;2022-10-20T03:16:33;1.40;;;0.68;;
56631;SDS011;42503;39.928;-75.152;2022-10-20T03:18:34;1.33;;;0.75;;
56631;SDS011;42503;39.928;-75.152;2022-10-20T03:20:35;0.68;;;0.55;;
56631;SDS011;42503;39.928;-75.152;2022-10-20T03:22:37;1.13;;;0.73;;
56631;SDS011;42503;39.928;-75.152;2022-10-20T03:24:38;2.28;;;1.17;;
56631;SDS011;42503;39.928;-75.152;2022-10-20T03:26:42;2.33;;;0.70;;
56631;SDS011;42503;39.928;-75.152;2022-10-20T03:28:44;1.63;;;0.75;;
56631;SDS011;42503;39.928;-75.152;2022-10-20T03:30:48;1.27;;;0.80;;
56631;SDS011;42503;39.928;-75.152;2022-10-20T03:32:49;1.00;;;0.60;;
56631;SDS011;42503;39.928;-75.152;2022-10-20T03:34:50;2.72;;;0.85;;
56631;SDS011;42503;39.928;-75.152;2022-10-20T03:36:54;2.45;;;0.80;;
56631;SDS011;42503;39.928;-75.152;2022-10-20T03:38:55;1.45;;;0.88;;
56631;SDS011;42503;39.928;-75.152;2022-10-20T03:40:57;1.13;;;0.70;;
56631;SDS011;42503;39.928;-75.152;2022-10-20T03:42:58;0.88;;;0.60;;
56631;SDS011;42503;39.928;-75.152;2022-10-20T03:45:02;2.42;;;0.60;;
56631;SDS011;42503;39.928;-75.152;2022-10-20T03:47:03;0.80;;;0.63;;
56631;SDS011;42503;39.928;-75.152;2022-10-20T03:49:05;1.95;;;0.77;;
56631;SDS011;42503;39.928;-75.152;2022-10-20T03:51:06;0.85;;;0.70;;
56631;SDS011;42503;39.928;-75.152;2022-10-20T03:53:11;1.60;;;0.90;;
56631;SDS011;42503;39.928;-75.152;2022-10-20T03:55:17;1.70;;;0.95;;
56631;SDS011;42503;39.928;-75.152;2022-10-20T03:57:19;0.65;;;0.55;;
56631;SDS011;42503;39.928;-75.152;2022-10-20T03:59:20;1.02;;;0.70;;
56631;SDS011;42503;39.928;-75.152;2022-10-20T04:01:23;2.70;;;0.95;;
56631;SDS011;42503;39.928;-75.152;2022-10-20T04:03:29;1.05;;;0.50;;
56631;SDS011;42503;39.928;-75.152;2022-10-20T04:05:33;1.00;;;0.60;;
56631;SDS011;42503;39.928;-75.152;2022-10-20T04:07:34;1.73;;;0.75;;
56631;SDS011;42503;39.928;-75.152;2022-10-20T04:09:35;1.13;;;0.88;;
56631;SDS011;42503;39.928;-75.152;2022-10-20T04:11:37;11.07;;;1.20;;
56631;SDS011;42503;39.928;-75.152;2022-10-20T04:13:38;1.08;;;0.90;;
56631;SDS011;42503;39.928;-75.152;2022-10-20T04:15:39;1.63;;;0.80;;
56631;SDS011;42503;39.928;-75.152;2022-10-20T04:17:49;0.77;;;0.55;;
56631;SDS011;42503;39.928;-75.152;2022-10-20T04:19:51;4.60;;;0.52;;
56631;SDS011;42503;39.928;-75.152;2022-10-20T04:21:52;1.48;;;0.90;;
56631;SDS011;42503;39.928;-75.152;2022-10-20T04:23:56;1.67;;;0.90;;
56631;SDS011;42503;39.928;-75.152;2022-10-20T04:25:58;3.55;;;0.80;;
56631;SDS011;42503;39.928;-75.152;2022-10-20T04:27:59;1.30;;;0.70;;
56631;SDS011;42503;39.928;-75.152;2022-10-20T04:30:03;1.00;;;0.68;;
56631;SDS011;42503;39.928;-75.152;2022-10-20T04:34:07;5.35;;;0.90;;
56631;SDS011;42503;39.928;-75.152;2022-10-20T04:36:09;2.30;;;0.60;;
56631;SDS011;42503;39.928;-75.152;2022-10-20T04:38:14;2.65;;;0.73;;
56631;SDS011;42503;39.928;-75.152;2022-10-20T04:40:16;3.22;;;0.88;;
56631;SDS011;42503;39.928;-75.152;2022-10-20T04:42:17;1.63;;;0.85;;
56631;SDS011;42503;39.928;-75.152;2022-10-20T04:44:22;1.58;;;0.73;;
56631;SDS011;42503;39.928;-75.152;2022-10-20T04:46:26;0.57;;;0.55;;
56631;SDS011;42503;39.928;-75.152;2022-10-20T04:48:27;0.70;;;0.47;;
56631;SDS011;42503;39.928;-75.152;2022-10-20T04:50:28;1.17;;;0.63;;
56631;SDS011;42503;39.928;-75.152;2022-10-20T04:52:30;0.80;;;0.50;;
56631;SDS011;42503;39.928;-75.152;2022-10-20T04:54:31;1.00;;;0.50;;
56631;SDS011;42503;39.928;-75.152;2022-10-20T04:56:33;2.22;;;0.63;;
56631;SDS011;42503;39.928;-75.152;2022-10-20T04:58:34;3.72;;;0.80;;
56631;SDS011;42503;39.928;-75.152;2022-10-20T05:00:36;2.45;;;0.65;;
56631;SDS011;42503;39.928;-75.152;2022-10-20T05:02:38;2.65;;;0.63;;
56631;SDS011;42503;39.928;-75.152;2022-10-20T05:04:39;0.68;;;0.50;;
56631;SDS011;42503;39.928;-75.152;2022-10-20T05:06:40;1.77;;;0.57;;
56631;SDS011;42503;39.928;-75.152;2022-10-20T05:08:42;1.48;;;0.70;;
56631;SDS011;42503;39.928;-75.152;2022-10-20T05:10:46;1.95;;;0.60;;
56631;SDS011;42503;39.928;-75.152;2022-10-20T05:12:47;1.20;;;0.60;;
56631;SDS011;42503;39.928;-75.152;2022-10-20T05:14:48;1.00;;;0.50;;
56631;SDS011;42503;39.928;-75.152;2022-10-20T05:16:50;1.80;;;0.60;;
56631;SDS011;42503;39.928;-75.152;2022-10-20T05:18:52;2.47;;;0.50;;
56631;SDS011;42503;39.928;-75.152;2022-10-20T05:20:56;1.73;;;0.60;;
56631;SDS011;42503;39.928;-75.152;2022-10-20T05:23:11;1.70;;;0.60;;
56631;SDS011;42503;39.928;-75.152;2022-10-20T05:25:15;0.70;;;0.60;;
56631;SDS011;42503;39.928;-75.152;2022-10-20T05:27:16;1.55;;;0.80;;
56631;SDS011;42503;39.928;-75.152;2022-10-20T05:29:20;0.90;;;0.47;;
56631;SDS011;42503;39.928;-75.152;2022-10-20T05:31:22;1.80;;;0.75;;
56631;SDS011;42503;39.928;-75.152;2022-10-20T05:33:23;1.20;;;0.50;;
56631;SDS011;42503;39.928;-75.152;2022-10-20T05:35:26;0.80;;;0.60;;
56631;SDS011;42503;39.928;-75.152;2022-10-20T05:37:28;2.22;;;0.63;;
56631;SDS011;42503;39.928;-75.152;2022-10-20T05:39:29;0.63;;;0.55;;
56631;SDS011;42503;39.928;-75.152;2022-10-20T05:41:31;1.13;;;0.50;;
56631;SDS011;42503;39.928;-75.152;2022-10-20T05:43:33;0.43;;;0.40;;
56631;SDS011;42503;39.928;-75.152;2022-10-20T05:45:34;1.17;;;0.40;;
56631;SDS011;42503;39.928;-75.152;2022-10-20T05:47:38;0.50;;;0.50;;
56631;SDS011;42503;39.928;-75.152;2022-10-20T05:49:43;1.33;;;0.35;;
56631;SDS011;42503;39.928;-75.152;2022-10-20T05:51:45;0.60;;;0.50;;
56631;SDS011;42503;39.928;-75.152;2022-10-20T05:53:46;1.17;;;0.50;;
56631;SDS011;42503;39.928;-75.152;2022-10-20T05:55:48;0.93;;;0.50;;
56631;SDS011;42503;39.928;-75.152;2022-10-20T05:57:49;2.05;;;0.40;;
56631;SDS011;42503;39.928;-75.152;2022-10-20T05:59:53;0.75;;;0.60;;
56631;SDS011;42503;39.928;-75.152;2022-10-20T06:01:55;0.77;;;0.50;;
56631;SDS011;42503;39.928;-75.152;2022-10-20T06:03:57;0.47;;;0.40;;
56631;SDS011;42503;39.928;-75.152;2022-10-20T06:05:59;0.40;;;0.40;;
56631;SDS011;42503;39.928;-75.152;2022-10-20T06:08:01;0.40;;;0.40;;
56631;SDS011;42503;39.928;-75.152;2022-10-20T06:10:02;0.47;;;0.47;;
56631;SDS011;42503;39.928;-75.152;2022-10-20T06:12:04;1.45;;;0.55;;
56631;SDS011;42503;39.928;-75.152;2022-10-20T06:14:07;0.90;;;0.68;;
56631;SDS011;42503;39.928;-75.152;2022-10-20T06:16:12;0.77;;;0.40;;
56631;SDS011;42503;39.928;-75.152;2022-10-20T06:18:16;0.98;;;0.52;;
56631;SDS011;42503;39.928;-75.152;2022-10-20T06:20:20;0.82;;;0.52;;
56631;SDS011;42503;39.928;-75.152;2022-10-20T06:22:24;1.20;;;0.47;;
56631;SDS011;42503;39.928;-75.152;2022-10-20T06:24:25;1.42;;;0.40;;
56631;SDS011;42503;39.928;-75.152;2022-10-20T06:26:27;1.10;;;0.40;;
56631;SDS011;42503;39.928;-75.152;2022-10-20T06:28:30;1.38;;;0.60;;
56631;SDS011;42503;39.928;-75.152;2022-10-20T06:30:35;1.20;;;0.50;;
56631;SDS011;42503;39.928;-75.152;2022-10-20T06:32:39;0.40;;;0.40;;
56631;SDS011;42503;39.928;-75.152;2022-10-20T06:34:43;0.93;;;0.60;;
56631;SDS011;42503;39.928;-75.152;2022-10-20T06:36:44;0.75;;;0.60;;
56631;SDS011;42503;39.928;-75.152;2022-10-20T06:38:53;0.75;;;0.60;;
56631;SDS011;42503;39.928;-75.152;2022-10-20T06:41:01;0.95;;;0.55;;
56631;SDS011;42503;39.928;-75.152;2022-10-20T06:43:06;0.47;;;0.43;;
56631;SDS011;42503;39.928;-75.152;2022-10-20T06:45:07;0.50;;;0.38;;
56631;SDS011;42503;39.928;-75.152;2022-10-20T06:47:12;0.68;;;0.40;;
56631;SDS011;42503;39.928;-75.152;2022-10-20T06:49:16;0.93;;;0.45;;
56631;SDS011;42503;39.928;-75.152;2022-10-20T06:51:20;0.65;;;0.47;;
56631;SDS011;42503;39.928;-75.152;2022-10-20T06:53:25;0.43;;;0.43;;
56631;SDS011;42503;39.928;-75.152;2022-10-20T06:55:28;1.02;;;0.60;;
56631;SDS011;42503;39.928;-75.152;2022-10-20T06:57:31;1.77;;;0.50;;
56631;SDS011;42503;39.928;-75.152;2022-10-20T06:59:36;0.77;;;0.50;;
56631;SDS011;42503;39.928;-75.152;2022-10-20T07:01:38;0.52;;;0.43;;
56631;SDS011;42503;39.928;-75.152;2022-10-20T07:03:42;1.05;;;0.40;;
56631;SDS011;42503;39.928;-75.152;2022-10-20T07:05:46;0.60;;;0.43;;
56631;SDS011;42503;39.928;-75.152;2022-10-20T07:07:51;0.40;;;0.40;;
56631;SDS011;42503;39.928;-75.152;2022-10-20T07:09:55;0.50;;;0.50;;
56631;SDS011;42503;39.928;-75.152;2022-10-20T07:11:56;0.95;;;0.47;;
56631;SDS011;42503;39.928;-75.152;2022-10-20T07:13:58;0.57;;;0.30;;
56631;SDS011;42503;39.928;-75.152;2022-10-20T07:16:00;0.50;;;0.40;;
56631;SDS011;42503;39.928;-75.152;2022-10-20T07:18:02;1.15;;;0.40;;
56631;SDS011;42503;39.928;-75.152;2022-10-20T07:20:06;0.60;;;0.37;;
56631;SDS011;42503;39.928;-75.152;2022-10-20T07:22:08;1.17;;;0.52;;
56631;SDS011;42503;39.928;-75.152;2022-10-20T07:24:09;1.13;;;0.68;;
56631;SDS011;42503;39.928;-75.152;2022-10-20T07:26:20;0.75;;;0.63;;
56631;SDS011;42503;39.928;-75.152;2022-10-20T07:28:28;0.75;;;0.57;;
56631;SDS011;42503;39.928;-75.152;2022-10-20T07:30:30;0.50;;;0.40;;
56631;SDS011;42503;39.928;-75.152;2022-10-20T07:32:31;1.25;;;0.40;;
56631;SDS011;42503;39.928;-75.152;2022-10-20T07:34:33;0.32;;;0.30;;
56631;SDS011;42503;39.928;-75.152;2022-10-20T07:36:34;0.52;;;0.52;;
56631;SDS011;42503;39.928;-75.152;2022-10-20T07:38:36;1.67;;;0.52;;
56631;SDS011;42503;39.928;-75.152;2022-10-20T07:40:37;0.32;;;0.32;;
56631;SDS011;42503;39.928;-75.152;2022-10-20T07:42:38;1.08;;;0.50;;
56631;SDS011;42503;39.928;-75.152;2022-10-20T07:44:39;0.73;;;0.45;;
56631;SDS011;42503;39.928;-75.152;2022-10-20T07:46:41;0.43;;;0.40;;
56631;SDS011;42503;39.928;-75.152;2022-10-20T07:48:42;0.75;;;0.60;;
56631;SDS011;42503;39.928;-75.152;2022-10-20T07:50:46;0.50;;;0.40;;
56631;SDS011;42503;39.928;-75.152;2022-10-20T07:52:51;0.35;;;0.35;;
56631;SDS011;42503;39.928;-75.152;2022-10-20T07:54:56;1.05;;;0.60;;
56631;SDS011;42503;39.928;-75.152;2022-10-20T07:57:00;0.57;;;0.50;;
56631;SDS011;42503;39.928;-75.152;2022-10-20T07:59:02;0.47;;;0.38;;
56631;SDS011;42503;39.928;-75.152;2022-10-20T08:01:04;0.68;;;0.50;;
56631;SDS011;42503;39.928;-75.152;2022-10-20T08:03:08;0.45;;;0.45;;
56631;SDS011;42503;39.928;-75.152;2022-10-20T08:05:09;0.88;;;0.57;;
56631;SDS011;42503;39.928;-75.152;2022-10-20T08:07:11;0.60;;;0.50;;
56631;SDS011;42503;39.928;-75.152;2022-10-20T08:09:12;0.63;;;0.40;;
56631;SDS011;42503;39.928;-75.152;2022-10-20T08:11:14;0.38;;;0.38;;
56631;SDS011;42503;39.928;-75.152;2022-10-20T08:13:18;0.50;;;0.50;;
56631;SDS011;42503;39.928;-75.152;2022-10-20T08:15:22;0.52;;;0.50;;
56631;SDS011;42503;39.928;-75.152;2022-10-20T08:17:26;0.88;;;0.65;;
56631;SDS011;42503;39.928;-75.152;2022-10-20T08:19:29;0.55;;;0.55;;
56631;SDS011;42503;39.928;-75.152;2022-10-20T08:21:30;2.15;;;0.50;;
56631;SDS011;42503;39.928;-75.152;2022-10-20T08:23:32;0.60;;;0.40;;
56631;SDS011;42503;39.928;-75.152;2022-10-20T08:25:33;0.77;;;0.40;;
56631;SDS011;42503;39.928;-75.152;2022-10-20T08:27:34;1.08;;;0.60;;
56631;SDS011;42503;39.928;-75.152;2022-10-20T08:29:38;0.60;;;0.60;;
56631;SDS011;42503;39.928;-75.152;2022-10-20T08:31:46;0.68;;;0.50;;
56631;SDS011;42503;39.928;-75.152;2022-10-20T08:33:47;1.08;;;0.50;;
56631;SDS011;42503;39.928;-75.152;2022-10-20T08:35:48;0.63;;;0.40;;
56631;SDS011;42503;39.928;-75.152;2022-10-20T08:37:52;0.90;;;0.60;;
56631;SDS011;42503;39.928;-75.152;2022-10-20T08:39:56;0.85;;;0.52;;
56631;SDS011;42503;39.928;-75.152;2022-10-20T08:41:57;0.43;;;0.40;;
56631;SDS011;42503;39.928;-75.152;2022-10-20T08:44:01;0.75;;;0.40;;
56631;SDS011;42503;39.928;-75.152;2022-10-20T08:46:04;0.60;;;0.60;;
56631;SDS011;42503;39.928;-75.152;2022-10-20T08:48:07;1.45;;;0.60;;
56631;SDS011;42503;39.928;-75.152;2022-10-20T08:50:16;0.88;;;0.60;;
56631;SDS011;42503;39.928;-75.152;2022-10-20T08:52:19;0.50;;;0.50;;
56631;SDS011;42503;39.928;-75.152;2022-10-20T08:54:22;0.40;;;0.40;;
56631;SDS011;42503;39.928;-75.152;2022-10-20T08:56:26;0.52;;;0.40;;
56631;SDS011;42503;39.928;-75.152;2022-10-20T08:58:31;1.02;;;0.63;;
56631;SDS011;42503;39.928;-75.152;2022-10-20T09:00:36;1.05;;;0.57;;
56631;SDS011;42503;39.928;-75.152;2022-10-20T09:02:41;1.23;;;0.80;;
56631;SDS011;42503;39.928;-75.152;2022-10-20T09:04:47;0.70;;;0.50;;
56631;SDS011;42503;39.928;-75.152;2022-10-20T09:06:56;1.13;;;0.60;;
56631;SDS011;42503;39.928;-75.152;2022-10-20T09:09:03;1.50;;;0.80;;
56631;SDS011;42503;39.928;-75.152;2022-10-20T09:11:05;0.57;;;0.57;;
56631;SDS011;42503;39.928;-75.152;2022-10-20T09:13:17;0.60;;;0.45;;
56631;SDS011;42503;39.928;-75.152;2022-10-20T09:15:23;1.10;;;0.70;;
56631;SDS011;42503;39.928;-75.152;2022-10-20T09:17:26;0.70;;;0.57;;
56631;SDS011;42503;39.928;-75.152;2022-10-20T09:19:28;0.60;;;0.57;;
56631;SDS011;42503;39.928;-75.152;2022-10-20T09:21:30;0.82;;;0.70;;
56631;SDS011;42503;39.928;-75.152;2022-10-20T09:23:34;0.80;;;0.70;;
56631;SDS011;42503;39.928;-75.152;2022-10-20T09:25:38;0.73;;;0.60;;
56631;SDS011;42503;39.928;-75.152;2022-10-20T09:27:41;0.80;;;0.60;;
56631;SDS011;42503;39.928;-75.152;2022-10-20T09:29:44;0.82;;;0.75;;
56631;SDS011;42503;39.928;-75.152;2022-10-20T09:31:55;0.88;;;0.52;;
56631;SDS011;42503;39.928;-75.152;2022-10-20T09:33:56;1.20;;;0.70;;
56631;SDS011;42503;39.928;-75.152;2022-10-20T09:36:04;0.98;;;0.70;;
56631;SDS011;42503;39.928;-75.152;2022-10-20T09:40:19;1.20;;;0.80;;
56631;SDS011;42503;39.928;-75.152;2022-10-20T09:44:29;2.50;;;0.60;;
56631;SDS011;42503;39.928;-75.152;2022-10-20T09:46:51;0.85;;;0.77;;
56631;SDS011;42503;39.928;-75.152;2022-10-20T09:48:54;1.20;;;0.88;;
56631;SDS011;42503;39.928;-75.152;2022-10-20T09:50:56;1.05;;;0.73;;
56631;SDS011;42503;39.928;-75.152;2022-10-20T09:52:59;1.38;;;0.68;;
56631;SDS011;42503;39.928;-75.152;2022-10-20T09:55:26;0.85;;;0.70;;
56631;SDS011;42503;39.928;-75.152;2022-10-20T09:57:34;1.05;;;0.60;;
56631;SDS011;42503;39.928;-75.152;2022-10-20T09:59:37;0.70;;;0.70;;
56631;SDS011;42503;39.928;-75.152;2022-10-20T10:03:58;0.60;;;0.60;;
56631;SDS011;42503;39.928;-75.152;2022-10-20T10:06:01;0.90;;;0.63;;
56631;SDS011;42503;39.928;-75.152;2022-10-20T10:08:55;1.00;;;0.70;;
56631;SDS011;42503;39.928;-75.152;2022-10-20T10:11:00;0.80;;;0.57;;
56631;SDS011;42503;39.928;-75.152;2022-10-20T10:13:18;0.73;;;0.70;;
56631;SDS011;42503;39.928;-75.152;2022-10-20T10:15:25;0.95;;;0.80;;
56631;SDS011;42503;39.928;-75.152;2022-10-20T10:17:36;0.65;;;0.60;;
56631;SDS011;42503;39.928;-75.152;2022-10-20T10:19:46;0.80;;;0.68;;
56631;SDS011;42503;39.928;-75.152;2022-10-20T10:21:51;2.22;;;0.77;;
56631;SDS011;42503;39.928;-75.152;2022-10-20T10:24:10;1.50;;;0.82;;
56631;SDS011;42503;39.928;-75.152;2022-10-20T10:27:02;0.93;;;0.70;;
56631;SDS011;42503;39.928;-75.152;2022-10-20T10:28:56;0.70;;;0.70;;
56631;SDS011;42503;39.928;-75.152;2022-10-20T10:33:27;1.35;;;0.88;;
56631;SDS011;42503;39.928;-75.152;2022-10-20T10:35:36;0.98;;;0.70;;
56631;SDS011;42503;39.928;-75.152;2022-10-20T10:37:40;1.05;;;0.80;;
56631;SDS011;42503;39.928;-75.152;2022-10-20T10:39:44;0.98;;;0.70;;
56631;SDS011;42503;39.928;-75.152;2022-10-20T10:42:07;0.80;;;0.70;;
56631;SDS011;42503;39.928;-75.152;2022-10-20T10:44:37;1.33;;;0.80;;
56631;SDS011;42503;39.928;-75.152;2022-10-20T10:47:52;4.13;;;1.25;;
56631;SDS011;42503;39.928;-75.152;2022-10-20T10:54:41;1.10;;;0.80;;
56631;SDS011;42503;39.928;-75.152;2022-10-20T10:56:47;1.23;;;0.70;;
56631;SDS011;42503;39.928;-75.152;2022-10-20T10:58:58;1.10;;;0.85;;
56631;SDS011;42503;39.928;-75.152;2022-10-20T11:08:23;5.35;;;1.17;;
56631;SDS011;42503;39.928;-75.152;2022-10-20T11:13:22;2.17;;;0.80;;
56631;SDS011;42503;39.928;-75.152;2022-10-20T11:23:03;7.35;;;1.42;;
56631;SDS011;42503;39.928;-75.152;2022-10-20T11:27:57;4.20;;;1.40;;
56631;SDS011;42503;39.928;-75.152;2022-10-20T11:30:11;5.28;;;1.23;;
56631;SDS011;42503;39.928;-75.152;2022-10-20T11:34:39;2.55;;;1.10;;
56631;SDS011;42503;39.928;-75.152;2022-10-20T11:36:51;3.17;;;1.10;;
56631;SDS011;42503;39.928;-75.152;2022-10-20T11:39:27;6.72;;;1.50;;
56631;SDS011;42503;39.928;-75.152;2022-10-20T11:41:41;2.88;;;1.10;;
56631;SDS011;42503;39.928;-75.152;2022-10-20T11:43:53;5.05;;;1.20;;
56631;SDS011;42503;39.928;-75.152;2022-10-20T11:46:10;2.15;;;1.08;;
56631;SDS011;42503;39.928;-75.152;2022-10-20T11:50:24;5.00;;;1.55;;
56631;SDS011;42503;39.928;-75.152;2022-10-20T12:07:28;5.53;;;1.17;;
56631;SDS011;42503;39.928;-75.152;2022-10-20T12:09:46;5.82;;;1.15;;
56631;SDS011;42503;39.928;-75.152;2022-10-20T12:14:38;5.35;;;1.38;;
56631;SDS011;42503;39.928;-75.152;2022-10-20T12:23:57;7.80;;;1.65;;
56631;SDS011;42503;39.928;-75.152;2022-10-20T12:26:02;4.88;;;1.38;;
56631;SDS011;42503;39.928;-75.152;2022-10-20T12:30:41;6.05;;;1.40;;
56631;SDS011;42503;39.928;-75.152;2022-10-20T12:32:53;8.48;;;1.20;;
56631;SDS011;42503;39.928;-75.152;2022-10-20T12:34:56;5.45;;;1.58;;
56631;SDS011;42503;39.928;-75.152;2022-10-20T12:37:08;4.55;;;1.33;;
56631;SDS011;42503;39.928;-75.152;2022-10-20T12:39:20;5.65;;;1.50;;
56631;SDS011;42503;39.928;-75.152;2022-10-20T12:41:30;5.63;;;1.63;;
56631;SDS011;42503;39.928;-75.152;2022-10-20T12:43:35;2.97;;;1.60;;
56631;SDS011;42503;39.928;-75.152;2022-10-20T12:45:48;6.35;;;1.90;;
56631;SDS011;42503;39.928;-75.152;2022-10-20T12:47:51;6.72;;;1.50;;
56631;SDS011;42503;39.928;-75.152;2022-10-20T12:52:03;4.13;;;1.55;;
56631;SDS011;42503;39.928;-75.152;2022-10-20T12:56:20;2.88;;;1.38;;
56631;SDS011;42503;39.928;-75.152;2022-10-20T13:02:29;5.75;;;1.40;;
56631;SDS011;42503;39.928;-75.152;2022-10-20T13:06:54;4.68;;;1.42;;
56631;SDS011;42503;39.928;-75.152;2022-10-20T13:14:03;6.68;;;1.50;;
56631;SDS011;42503;39.928;-75.152;2022-10-20T13:16:10;6.05;;;1.30;;
56631;SDS011;42503;39.928;-75.152;2022-10-20T13:18:18;2.60;;;1.08;;
56631;SDS011;42503;39.928;-75.152;2022-10-20T13:20:27;3.33;;;1.50;;
56631;SDS011;42503;39.928;-75.152;2022-10-20T13:22:43;4.85;;;1.33;;
56631;SDS011;42503;39.928;-75.152;2022-10-20T13:24:46;7.35;;;1.52;;
56631;SDS011;42503;39.928;-75.152;2022-10-20T13:26:51;5.80;;;1.37;;
56631;SDS011;42503;39.928;-75.152;2022-10-20T13:28:59;3.08;;;1.33;;
56631;SDS011;42503;39.928;-75.152;2022-10-20T13:31:15;4.35;;;1.30;;
56631;SDS011;42503;39.928;-75.152;2022-10-20T13:36:11;3.80;;;2.08;;
56631;SDS011;42503;39.928;-75.152;2022-10-20T13:46:00;3.67;;;1.30;;
56631;SDS011;42503;39.928;-75.152;2022-10-20T13:50:33;4.63;;;1.30;;
56631;SDS011;42503;39.928;-75.152;2022-10-20T13:52:41;2.03;;;1.33;;
56631;SDS011;42503;39.928;-75.152;2022-10-20T13:54:46;9.20;;;1.58;;
56631;SDS011;42503;39.928;-75.152;2022-10-20T13:56:54;3.45;;;1.10;;
56631;SDS011;42503;39.928;-75.152;2022-10-20T14:01:19;2.55;;;1.20;;
56631;SDS011;42503;39.928;-75.152;2022-10-20T14:03:25;6.13;;;1.52;;
56631;SDS011;42503;39.928;-75.152;2022-10-20T14:05:28;4.95;;;1.35;;
56631;SDS011;42503;39.928;-75.152;2022-10-20T14:07:42;2.97;;;1.50;;
56631;SDS011;42503;39.928;-75.152;2022-10-20T14:09:44;2.67;;;1.40;;
56631;SDS011;42503;39.928;-75.152;2022-10-20T14:12:00;2.45;;;1.23;;
56631;SDS011;42503;39.928;-75.152;2022-10-20T14:14:04;1.90;;;1.38;;
56631;SDS011;42503;39.928;-75.152;2022-10-20T14:16:05;2.83;;;1.27;;